Time;durP1;ratioP1;P1;durP2;ratioP2;P2;SDS_P1;SDS_P2;PMS_P1;PMS_P2;Temp;Humidity;BMP_temperature;BMP_pressure;BME280_temperature;BME280_humidity;BME280_pressure;Samples;Min_cycle;Max_cycle;Signal;HPM_P1;HPM_P2
2022/11/29 00:01:37;;;;;;;33.78;20.98;;;6.20;99.90;;;;;;5013050;28;20053;-70
2022/11/29 00:04:03;;;;;;;32.33;20.63;;;6.20;99.90;;;;;;5009665;28;20076;-69
2022/11/29 00:06:32;;;;;;;32.40;21.08;;;6.20;99.90;;;;;;5011669;28;20032;-71
2022/11/29 00:09:07;;;;;;;32.03;21.30;;;6.20;99.90;;;;;;5009818;28;20026;-71
2022/11/29 00:14:22;;;;;;;35.00;21.50;;;6.20;99.90;;;;;;5011574;28;20462;-71
2022/11/29 00:16:52;;;;;;;33.10;20.80;;;6.20;99.90;;;;;;5010471;28;20492;-71
2022/11/29 00:19:17;;;;;;;37.80;21.20;;;6.10;99.90;;;;;;5011817;28;20017;-70
2022/11/29 00:21:43;;;;;;;34.30;21.60;;;6.10;99.90;;;;;;5011155;28;20547;-71
2022/11/29 00:24:09;;;;;;;32.10;21.00;;;6.10;99.90;;;;;;5026169;28;20037;-71
2022/11/29 00:26:38;;;;;;;33.45;21.65;;;6.10;99.90;;;;;;5011947;28;20121;-71
2022/11/29 00:29:04;;;;;;;38.03;21.48;;;6.00;99.90;;;;;;5009876;28;20532;-70
2022/11/29 00:31:32;;;;;;;30.38;19.92;;;6.00;99.90;;;;;;5013641;28;20029;-70
2022/11/29 00:33:59;;;;;;;35.33;22.50;;;6.00;99.90;;;;;;5008297;28;20026;-70
2022/11/29 00:36:26;;;;;;;35.83;20.13;;;6.00;99.90;;;;;;5009726;28;20077;-70
2022/11/29 00:38:54;;;;;;;33.55;21.00;;;6.00;99.90;;;;;;5013264;28;20034;-70
2022/11/29 00:41:20;;;;;;;31.35;19.77;;;6.10;99.90;;;;;;5010081;28;20110;-70
2022/11/29 00:43:46;;;;;;;37.47;22.73;;;6.00;99.90;;;;;;5012764;28;20026;-69
2022/11/29 00:46:11;;;;;;;33.72;19.15;;;6.00;99.90;;;;;;5010920;28;20080;-70
2022/11/29 00:48:37;;;;;;;34.03;21.42;;;6.10;99.90;;;;;;5012383;28;20026;-70
2022/11/29 00:51:04;;;;;;;32.20;20.58;;;6.10;99.90;;;;;;5010784;28;20045;-70
2022/11/29 00:53:31;;;;;;;33.38;21.08;;;6.10;99.90;;;;;;5011794;28;20071;-70
2022/11/29 00:55:56;;;;;;;36.13;21.77;;;6.10;99.90;;;;;;5005288;28;20117;-70
2022/11/29 00:58:23;;;;;;;33.92;21.67;;;6.10;99.90;;;;;;5012967;28;20105;-70
2022/11/29 01:00:49;;;;;;;36.80;21.52;;;6.20;99.90;;;;;;5011532;28;20539;-70
2022/11/29 01:03:16;;;;;;;35.85;21.48;;;6.10;99.90;;;;;;5012075;28;20022;-70
2022/11/29 01:05:42;;;;;;;36.70;21.60;;;6.10;99.90;;;;;;5012522;28;20095;-71
2022/11/29 01:08:08;;;;;;;30.40;20.08;;;6.20;99.90;;;;;;5011112;28;20398;-71
2022/11/29 01:10:33;;;;;;;34.67;21.08;;;6.10;99.90;;;;;;5010543;28;20371;-70
2022/11/29 01:12:59;;;;;;;32.75;20.00;;;6.10;99.90;;;;;;5013163;28;20028;-71
2022/11/29 01:15:25;;;;;;;30.25;20.02;;;6.20;99.90;;;;;;5011196;28;20034;-70
2022/11/29 01:17:52;;;;;;;35.67;20.70;;;6.20;99.90;;;;;;5012326;28;20036;-71
2022/11/29 01:20:18;;;;;;;32.38;21.50;;;6.10;99.90;;;;;;5010883;28;20396;-70
2022/11/29 01:22:44;;;;;;;32.30;20.52;;;6.10;99.90;;;;;;5012070;28;20037;-71
2022/11/29 01:25:11;;;;;;;32.95;19.95;;;6.10;99.90;;;;;;5010942;28;20022;-70
2022/11/29 01:27:37;;;;;;;37.65;21.88;;;6.20;99.90;;;;;;5009237;28;20029;-70
2022/11/29 01:30:07;;;;;;;35.83;21.17;;;6.20;99.90;;;;;;5010791;28;20507;-70
2022/11/29 01:32:34;;;;;;;34.47;21.42;;;6.10;99.90;;;;;;5010040;28;20486;-70
2022/11/29 01:34:59;;;;;;;29.75;19.65;;;6.20;99.90;;;;;;5009323;28;20045;-70
2022/11/29 01:37:27;;;;;;;33.25;22.27;;;6.10;99.90;;;;;;5010746;28;20049;-70
2022/11/29 01:39:53;;;;;;;35.72;21.05;;;6.20;99.90;;;;;;5010938;28;20038;-70
2022/11/29 01:42:19;;;;;;;33.33;21.20;;;6.20;99.90;;;;;;5009449;28;20385;-70
2022/11/29 01:44:44;;;;;;;34.47;21.63;;;6.20;99.90;;;;;;5009987;28;20080;-70
2022/11/29 01:47:11;;;;;;;32.17;22.20;;;6.20;99.90;;;;;;5011618;28;20045;-70
2022/11/29 01:49:41;;;;;;;32.92;21.35;;;6.20;99.90;;;;;;5009728;28;20522;-69
2022/11/29 01:52:14;;;;;;;34.22;20.90;;;6.10;99.90;;;;;;5009945;28;20378;-69
2022/11/29 01:54:42;;;;;;;32.67;20.23;;;6.10;99.90;;;;;;5009399;28;20033;-69
2022/11/29 01:57:09;;;;;;;36.13;21.85;;;6.20;99.90;;;;;;5011289;28;20036;-69
2022/11/29 01:59:37;;;;;;;34.20;21.65;;;6.10;99.90;;;;;;5008268;28;20048;-69
2022/11/29 02:02:12;;;;;;;35.70;21.90;;;6.10;99.90;;;;;;5010340;28;20038;-69
2022/11/29 02:04:40;;;;;;;35.10;21.58;;;6.10;99.90;;;;;;5025605;28;20033;-69
2022/11/29 02:07:06;;;;;;;31.00;20.05;;;6.10;99.90;;;;;;5007610;28;20057;-69
2022/11/29 02:09:32;;;;;;;36.80;22.77;;;6.10;99.90;;;;;;5008740;28;20104;-70
2022/11/29 02:12:35;;;;;;;36.00;21.83;;;6.10;99.90;;;;;;5010742;28;20026;-70
2022/11/29 02:15:28;;;;;;;38.83;22.48;;;6.10;99.90;;;;;;5010917;28;20377;-70
2022/11/29 02:18:04;;;;;;;31.52;20.80;;;6.10;99.90;;;;;;5010251;28;20040;-70
2022/11/29 02:20:48;;;;;;;34.90;21.33;;;6.10;99.90;;;;;;5009270;28;20042;-70
2022/11/29 02:23:29;;;;;;;36.47;22.05;;;6.10;99.90;;;;;;5011306;28;20068;-70
2022/11/29 02:26:14;;;;;;;35.85;21.42;;;6.10;99.90;;;;;;5009312;28;20142;-71
2022/11/29 02:29:11;;;;;;;34.50;21.90;;;6.10;99.90;;;;;;5007736;28;20033;-70
2022/11/29 02:32:10;;;;;;;36.55;22.75;;;6.10;99.90;;;;;;5008221;28;20029;-70
2022/11/29 02:34:57;;;;;;;33.70;21.85;;;6.10;99.90;;;;;;5008281;28;20042;-70
2022/11/29 02:37:41;;;;;;;34.28;22.05;;;6.00;99.90;;;;;;5008788;28;20049;-70
2022/11/29 02:40:32;;;;;;;33.45;21.30;;;6.00;99.90;;;;;;5009710;28;20050;-70
2022/11/29 02:43:04;;;;;;;31.73;20.92;;;6.00;99.90;;;;;;5008529;28;20509;-71
2022/11/29 02:45:45;;;;;;;36.38;21.48;;;6.00;99.90;;;;;;5009997;28;20040;-71
2022/11/29 02:48:38;;;;;;;37.47;23.52;;;6.10;99.90;;;;;;5007635;28;20061;-71
2022/11/29 02:51:39;;;;;;;39.20;22.33;;;6.10;99.90;;;;;;5014687;28;20081;-71
2022/11/29 02:54:20;;;;;;;37.70;22.92;;;6.00;99.90;;;;;;4996719;28;20041;-70
2022/11/29 02:56:57;;;;;;;33.65;20.90;;;6.00;99.90;;;;;;5014288;28;20156;-70
2022/11/29 02:59:40;;;;;;;34.72;22.15;;;6.00;99.90;;;;;;5012532;28;20052;-70
2022/11/29 03:02:35;;;;;;;37.22;22.83;;;6.00;99.90;;;;;;5013154;28;20030;-71
2022/11/29 03:05:26;;;;;;;36.30;23.33;;;6.00;99.90;;;;;;5002600;28;20041;-71
2022/11/29 03:08:11;;;;;;;33.45;21.63;;;6.00;99.90;;;;;;5013756;28;20044;-71
2022/11/29 03:10:55;;;;;;;38.70;22.52;;;6.00;99.90;;;;;;5012841;28;20429;-70
2022/11/29 03:14:02;;;;;;;36.33;22.40;;;6.00;99.90;;;;;;5013527;28;20025;-70
2022/11/29 03:16:33;;;;;;;38.88;22.67;;;6.00;99.90;;;;;;4999833;28;20045;-70
2022/11/29 03:19:04;;;;;;;36.30;24.30;;;6.00;99.90;;;;;;5006208;28;20030;-70
2022/11/29 03:22:10;;;;;;;34.60;22.45;;;6.10;99.90;;;;;;5013938;28;20073;-70
2022/11/29 03:24:53;;;;;;;38.85;23.58;;;6.00;99.90;;;;;;5012733;28;20030;-71
2022/11/29 03:27:42;;;;;;;37.15;22.85;;;6.00;99.90;;;;;;5005593;28;20053;-71
2022/11/29 03:30:12;;;;;;;38.35;22.85;;;6.00;99.90;;;;;;5014266;28;20026;-71
2022/11/29 03:33:24;;;;;;;35.83;22.60;;;6.00;99.90;;;;;;5013854;28;20030;-71
2022/11/29 03:36:06;;;;;;;39.17;22.67;;;6.00;99.90;;;;;;4984835;28;20176;-71
2022/11/29 03:38:45;;;;;;;44.00;24.67;;;6.00;99.90;;;;;;5005442;28;20437;-71
2022/11/29 03:41:45;;;;;;;38.25;23.60;;;6.00;99.90;;;;;;5015110;28;20046;-71
2022/11/29 03:44:39;;;;;;;37.78;24.15;;;6.00;99.90;;;;;;5001319;28;20069;-70
2022/11/29 03:47:13;;;;;;;35.45;23.40;;;6.00;99.90;;;;;;5012070;28;20087;-71
2022/11/29 03:50:15;;;;;;;38.55;23.88;;;6.00;99.90;;;;;;5013350;28;20033;-71
2022/11/29 03:52:50;;;;;;;36.97;23.08;;;6.00;99.90;;;;;;5011661;28;20038;-71
2022/11/29 03:55:49;;;;;;;36.42;23.80;;;6.00;99.90;;;;;;5011010;28;20030;-70
2022/11/29 03:58:50;;;;;;;35.30;22.95;;;6.00;99.90;;;;;;5010197;28;20201;-70
2022/11/29 04:01:24;;;;;;;35.58;22.00;;;6.00;99.90;;;;;;5007238;28;20509;-71
2022/11/29 04:03:51;;;;;;;37.10;22.95;;;6.00;99.90;;;;;;5004251;28;20038;-70
2022/11/29 04:06:30;;;;;;;36.20;23.45;;;6.00;99.90;;;;;;5002337;28;20030;-70
2022/11/29 04:09:11;;;;;;;35.80;22.40;;;6.10;99.90;;;;;;5007318;28;20030;-71
2022/11/29 04:11:53;;;;;;;36.35;22.45;;;6.00;99.90;;;;;;5012516;28;20108;-71
2022/11/29 04:14:31;;;;;;;39.13;23.75;;;6.10;99.90;;;;;;5013060;28;20025;-70
2022/11/29 04:17:21;;;;;;;43.10;23.60;;;6.00;99.90;;;;;;5009358;28;20085;-70
2022/11/29 04:20:18;;;;;;;35.88;23.05;;;6.00;99.90;;;;;;5011260;28;20045;-70
2022/11/29 04:22:57;;;;;;;37.42;22.63;;;6.10;99.90;;;;;;5003898;28;20057;-70
2022/11/29 04:25:40;;;;;;;36.30;22.40;;;6.10;99.90;;;;;;5008901;28;20034;-70
2022/11/29 04:28:39;;;;;;;37.38;24.50;;;6.10;99.90;;;;;;5012466;28;20033;-70
2022/11/29 04:31:43;;;;;;;32.92;22.05;;;6.10;99.90;;;;;;5012994;28;20030;-70
2022/11/29 04:34:28;;;;;;;35.33;23.08;;;6.10;99.90;;;;;;5007696;28;20088;-70
2022/11/29 04:37:14;;;;;;;38.28;23.88;;;6.10;99.90;;;;;;5006078;28;20120;-70
2022/11/29 04:40:01;;;;;;;37.17;22.92;;;6.10;99.90;;;;;;5009053;28;20120;-70
2022/11/29 04:42:37;;;;;;;40.58;25.42;;;6.10;99.90;;;;;;5010267;28;20026;-70
2022/11/29 04:45:27;;;;;;;36.35;24.00;;;6.10;99.90;;;;;;5011491;28;20022;-70
2022/11/29 04:48:15;;;;;;;38.95;24.88;;;6.10;99.90;;;;;;5010370;28;20453;-70
2022/11/29 04:50:53;;;;;;;38.25;23.35;;;6.10;99.90;;;;;;5012869;28;20026;-70
2022/11/29 04:54:03;;;;;;;38.67;23.98;;;6.00;99.90;;;;;;5009160;28;20385;-71
2022/11/29 04:56:46;;;;;;;39.75;22.35;;;6.00;99.90;;;;;;5003639;28;20034;-71
2022/11/29 04:59:37;;;;;;;37.85;22.75;;;6.00;99.90;;;;;;5010896;28;20432;-70
2022/11/29 05:02:24;;;;;;;38.90;24.45;;;6.00;99.90;;;;;;5009540;28;20118;-71
2022/11/29 05:05:12;;;;;;;34.10;21.88;;;6.00;99.90;;;;;;5014087;28;20370;-71
2022/11/29 05:08:07;;;;;;;37.58;22.83;;;6.00;99.90;;;;;;5003317;28;20109;-71
2022/11/29 05:10:41;;;;;;;42.83;25.10;;;6.00;99.90;;;;;;5020128;28;20392;-71
2022/11/29 05:13:09;;;;;;;38.75;24.05;;;6.00;99.90;;;;;;5010888;28;20033;-70
2022/11/29 05:15:52;;;;;;;40.90;23.35;;;6.00;99.90;;;;;;5012672;28;20393;-70
2022/11/29 05:18:24;;;;;;;40.45;25.25;;;6.00;99.90;;;;;;5011330;28;20120;-69
2022/11/29 05:21:07;;;;;;;34.90;21.88;;;6.00;99.90;;;;;;5011628;28;20513;-70
2022/11/29 05:24:13;;;;;;;39.38;24.73;;;6.00;99.90;;;;;;5010588;28;20025;-70
2022/11/29 05:27:20;;;;;;;46.53;26.98;;;6.00;99.90;;;;;;5010831;28;20504;-70
2022/11/29 05:30:06;;;;;;;39.33;23.00;;;6.00;99.90;;;;;;5009529;28;20350;-70
2022/11/29 05:33:13;;;;;;;42.95;25.67;;;6.00;99.90;;;;;;5010256;28;20536;-71
2022/11/29 05:36:00;;;;;;;34.75;23.02;;;6.00;99.90;;;;;;5005724;28;20527;-70
2022/11/29 05:38:38;;;;;;;37.78;22.85;;;6.00;99.90;;;;;;5008952;28;20543;-71
2022/11/29 05:41:23;;;;;;;36.20;21.67;;;6.00;99.90;;;;;;5003712;28;20045;-71
2022/11/29 05:44:12;;;;;;;39.47;24.10;;;6.00;99.90;;;;;;5010933;28;20493;-71
2022/11/29 05:46:58;;;;;;;41.95;24.17;;;6.00;99.90;;;;;;5006827;28;20057;-71
2022/11/29 05:49:40;;;;;;;37.00;23.10;;;6.00;99.90;;;;;;5012468;28;20038;-71
2022/11/29 05:52:27;;;;;;;35.58;22.95;;;6.00;99.90;;;;;;5006775;28;20053;-71
2022/11/29 05:55:18;;;;;;;39.25;22.48;;;6.00;99.90;;;;;;5000035;28;20041;-71
2022/11/29 05:58:01;;;;;;;39.25;23.27;;;6.00;99.90;;;;;;5010001;28;20036;-71
2022/11/29 06:00:44;;;;;;;37.80;23.33;;;6.00;99.90;;;;;;5010040;28;20044;-72
2022/11/29 06:03:31;;;;;;;35.40;20.77;;;6.00;99.90;;;;;;5008495;28;20034;-71
2022/11/29 06:06:24;;;;;;;37.88;21.85;;;6.00;99.90;;;;;;5005181;28;20026;-72
2022/11/29 06:09:08;;;;;;;33.72;21.50;;;6.00;99.90;;;;;;5003713;28;20033;-72
2022/11/29 06:11:38;;;;;;;38.25;23.23;;;5.90;99.90;;;;;;5009807;28;20697;-72
2022/11/29 06:14:30;;;;;;;37.45;23.05;;;5.90;99.90;;;;;;5008601;28;20041;-72
2022/11/29 06:17:10;;;;;;;36.67;23.40;;;5.90;99.90;;;;;;5006802;28;20038;-71
2022/11/29 06:20:13;;;;;;;35.80;22.02;;;6.00;99.90;;;;;;5010126;28;20045;-73
2022/11/29 06:22:54;;;;;;;34.45;21.63;;;6.00;99.90;;;;;;5010037;28;20026;-71
2022/11/29 06:25:42;;;;;;;36.75;22.13;;;6.00;99.90;;;;;;5008190;28;20038;-72
2022/11/29 06:28:16;;;;;;;36.40;23.73;;;6.00;99.90;;;;;;5000249;28;20106;-72
2022/11/29 06:30:48;;;;;;;40.47;24.52;;;6.00;99.90;;;;;;5009525;28;20030;-72
2022/11/29 06:33:32;;;;;;;38.28;22.60;;;5.90;99.90;;;;;;5009681;28;20026;-72
2022/11/29 06:36:38;;;;;;;42.05;23.80;;;6.00;99.90;;;;;;5009896;28;20065;-70
2022/11/29 06:39:04;;;;;;;37.05;23.60;;;6.00;99.90;;;;;;5005934;28;20038;-71
2022/11/29 06:41:31;;;;;;;36.30;23.90;;;6.00;99.90;;;;;;5010251;28;20448;-70
2022/11/29 06:43:57;;;;;;;41.42;23.17;;;6.00;99.90;;;;;;5007951;28;20022;-70
2022/11/29 06:46:29;;;;;;;37.97;23.90;;;6.00;99.90;;;;;;5011034;28;20358;-71
2022/11/29 06:49:02;;;;;;;38.53;24.42;;;6.00;99.90;;;;;;5007932;28;20026;-71
2022/11/29 06:52:00;;;;;;;35.92;23.15;;;6.00;99.90;;;;;;5010451;28;20109;-71
2022/11/29 06:55:00;;;;;;;37.67;23.23;;;6.10;99.90;;;;;;5005827;28;20022;-69
2022/11/29 06:57:34;;;;;;;34.10;22.58;;;6.10;99.90;;;;;;5009991;28;20109;-73
2022/11/29 07:00:25;;;;;;;36.28;23.25;;;6.10;99.90;;;;;;4997338;28;20034;-69
2022/11/29 07:03:14;;;;;;;36.58;22.10;;;6.00;99.90;;;;;;5008572;28;20030;-70
2022/11/29 07:05:41;;;;;;;37.20;22.50;;;6.00;99.90;;;;;;5006324;28;20026;-70
2022/11/29 07:08:20;;;;;;;37.17;22.90;;;6.00;99.90;;;;;;5004524;28;20057;-71
2022/11/29 07:10:49;;;;;;;37.47;23.33;;;6.10;99.90;;;;;;5016848;28;20042;-71
2022/11/29 07:13:17;;;;;;;35.30;21.85;;;6.10;99.90;;;;;;5005420;28;20453;-70
2022/11/29 07:16:17;;;;;;;41.97;24.83;;;6.00;99.90;;;;;;4999251;28;20077;-71
2022/11/29 07:18:59;;;;;;;37.83;22.75;;;6.00;99.90;;;;;;5006632;28;20034;-70
2022/11/29 07:21:57;;;;;;;35.72;24.20;;;6.00;99.90;;;;;;5008654;28;20121;-71
2022/11/29 07:24:49;;;;;;;42.10;23.83;;;6.00;99.90;;;;;;5006868;28;20030;-71
2022/11/29 07:27:26;;;;;;;39.33;24.10;;;6.10;99.90;;;;;;5009350;28;20037;-71
2022/11/29 07:30:03;;;;;;;39.60;23.73;;;6.00;99.90;;;;;;5009706;28;20104;-70
2022/11/29 07:33:07;;;;;;;40.38;23.50;;;6.10;99.90;;;;;;5009568;28;20026;-71
2022/11/29 07:36:09;;;;;;;38.13;22.33;;;6.10;99.90;;;;;;5004411;28;20068;-71
2022/11/29 07:38:49;;;;;;;34.17;21.35;;;6.10;99.90;;;;;;5007043;28;20030;-71
2022/11/29 07:41:45;;;;;;;38.83;23.10;;;6.10;99.90;;;;;;5012672;28;20366;-70
2022/11/29 07:44:10;;;;;;;41.20;22.88;;;6.10;99.90;;;;;;5009288;28;20022;-72
2022/11/29 07:46:36;;;;;;;36.28;22.55;;;6.10;99.90;;;;;;5011183;28;20040;-70
2022/11/29 07:49:02;;;;;;;35.83;21.52;;;6.10;99.90;;;;;;5009957;28;20076;-71
2022/11/29 07:51:29;;;;;;;38.97;23.13;;;6.10;99.90;;;;;;5011388;28;20025;-70
2022/11/29 07:53:55;;;;;;;38.92;23.38;;;6.10;99.90;;;;;;5011326;28;20061;-70
2022/11/29 07:56:21;;;;;;;34.30;21.42;;;6.10;99.90;;;;;;5008296;28;20107;-70
2022/11/29 07:58:47;;;;;;;39.40;22.50;;;6.20;99.90;;;;;;5006780;28;20034;-69
2022/11/29 08:01:13;;;;;;;35.60;22.38;;;6.10;99.90;;;;;;5010876;28;20052;-69
2022/11/29 08:03:41;;;;;;;37.58;22.63;;;6.20;99.90;;;;;;5011019;28;20029;-70
2022/11/29 08:06:07;;;;;;;35.45;23.17;;;6.20;99.90;;;;;;5010788;28;20128;-70
2022/11/29 08:08:32;;;;;;;36.55;20.90;;;6.20;99.90;;;;;;5011085;28;20018;-70
2022/11/29 08:10:58;;;;;;;37.25;22.65;;;6.20;99.90;;;;;;5012777;28;20387;-70
2022/11/29 08:13:24;;;;;;;38.88;22.33;;;6.20;99.90;;;;;;5016876;28;20080;-70
2022/11/29 08:15:50;;;;;;;35.97;22.25;;;6.20;99.90;;;;;;5027481;28;20026;-71
2022/11/29 08:18:16;;;;;;;34.78;20.58;;;6.20;99.90;;;;;;5003287;28;20026;-70
2022/11/29 08:20:42;;;;;;;33.95;21.00;;;6.20;99.90;;;;;;5005438;28;20062;-70
2022/11/29 08:23:11;;;;;;;34.45;22.35;;;6.30;99.90;;;;;;5012012;28;20060;-67
2022/11/29 08:25:37;;;;;;;36.08;22.88;;;6.30;99.90;;;;;;5011901;28;20034;-68
2022/11/29 08:28:03;;;;;;;40.90;23.98;;;6.30;99.90;;;;;;5010503;28;20386;-68
2022/11/29 08:30:29;;;;;;;38.63;22.27;;;6.30;99.90;;;;;;5011665;28;20073;-67
2022/11/29 08:32:55;;;;;;;38.63;23.10;;;6.30;99.90;;;;;;5010025;28;20501;-67
2022/11/29 08:35:22;;;;;;;36.20;23.52;;;6.40;99.90;;;;;;5010532;28;20065;-68
2022/11/29 08:37:48;;;;;;;39.90;23.75;;;6.40;99.90;;;;;;5010627;28;20053;-68
2022/11/29 08:40:14;;;;;;;36.97;23.42;;;6.40;99.90;;;;;;5009612;28;20092;-68
2022/11/29 08:42:40;;;;;;;38.08;23.77;;;6.50;99.90;;;;;;5011799;28;20482;-68
2022/11/29 08:45:08;;;;;;;41.50;23.08;;;6.40;99.90;;;;;;5010179;28;20030;-68
2022/11/29 08:47:37;;;;;;;35.55;23.83;;;6.50;99.90;;;;;;5003157;28;20033;-68
2022/11/29 08:50:13;;;;;;;35.05;23.48;;;6.60;99.90;;;;;;5011533;28;20030;-69
2022/11/29 08:55:38;;;;;;;33.42;20.75;;;6.70;99.90;;;;;;5008117;28;20068;-69
2022/11/29 08:58:13;;;;;;;37.47;21.80;;;6.70;99.90;;;;;;5010026;28;20073;-68
2022/11/29 09:00:42;;;;;;;33.13;21.60;;;6.80;99.90;;;;;;5009496;28;20523;-68
2022/11/29 09:05:52;;;;;;;34.47;21.98;;;6.80;99.90;;;;;;5007737;28;20397;-69
2022/11/29 09:08:19;;;;;;;36.03;22.27;;;6.90;99.90;;;;;;5009056;28;20022;-69
2022/11/29 09:10:45;;;;;;;32.67;21.80;;;6.90;99.90;;;;;;5005828;28;20037;-68
2022/11/29 09:13:11;;;;;;;34.05;22.15;;;7.00;99.90;;;;;;5007281;28;20037;-68
2022/11/29 09:15:38;;;;;;;36.05;22.15;;;7.00;99.90;;;;;;5008550;28;20026;-68
2022/11/29 09:18:04;;;;;;;37.35;22.20;;;7.00;99.90;;;;;;5013971;28;20120;-68
2022/11/29 09:20:31;;;;;;;38.30;22.70;;;7.00;99.90;;;;;;5022992;28;20041;-69
2022/11/29 09:22:58;;;;;;;34.28;21.27;;;7.10;99.90;;;;;;5010458;28;20032;-69
2022/11/29 09:25:24;;;;;;;34.97;22.52;;;7.10;99.90;;;;;;5008580;28;20029;-69
2022/11/29 09:27:50;;;;;;;34.80;22.13;;;7.20;99.90;;;;;;5009238;28;20030;-68
2022/11/29 09:30:16;;;;;;;34.60;21.00;;;7.30;99.90;;;;;;5008314;28;20496;-68
2022/11/29 09:32:42;;;;;;;33.95;20.85;;;7.30;99.90;;;;;;5009070;28;20033;-69
2022/11/29 09:35:08;;;;;;;39.55;22.38;;;7.40;99.90;;;;;;5010476;28;20065;-69
2022/11/29 09:37:35;;;;;;;36.25;22.08;;;7.40;99.90;;;;;;5008033;28;20060;-69
2022/11/29 09:40:03;;;;;;;38.17;22.55;;;7.40;99.90;;;;;;5008664;28;20104;-69
2022/11/29 09:42:53;;;;;;;34.80;22.25;;;7.50;99.90;;;;;;5009927;28;20030;-69
2022/11/29 09:45:27;;;;;;;34.05;21.00;;;7.50;99.90;;;;;;5008520;28;20053;-69
2022/11/29 09:48:04;;;;;;;35.58;22.27;;;7.60;99.90;;;;;;5010142;28;20037;-69
2022/11/29 09:50:43;;;;;;;32.85;21.80;;;7.70;99.90;;;;;;5008602;28;20042;-69
2022/11/29 09:53:55;;;;;;;33.80;20.50;;;7.70;99.90;;;;;;5009870;28;20026;-69
2022/11/29 09:56:37;;;;;;;34.22;20.60;;;7.70;99.90;;;;;;5007195;28;20072;-70
2022/11/29 09:59:10;;;;;;;34.33;21.73;;;7.70;99.90;;;;;;5009512;28;20037;-69
2022/11/29 10:01:53;;;;;;;34.63;22.13;;;7.70;99.90;;;;;;5008455;28;20042;-69
2022/11/29 10:04:24;;;;;;;37.15;23.23;;;7.80;99.90;;;;;;5004991;28;20052;-69
2022/11/29 10:07:14;;;;;;;36.40;21.60;;;7.80;99.90;;;;;;5010242;28;20064;-69
2022/11/29 10:09:50;;;;;;;34.53;21.48;;;7.80;99.90;;;;;;5007122;28;20445;-68
2022/11/29 10:12:24;;;;;;;32.20;21.85;;;7.80;99.90;;;;;;5008639;28;20053;-68
2022/11/29 10:15:18;;;;;;;36.47;22.85;;;7.80;99.90;;;;;;5007593;28;20068;-69
2022/11/29 10:17:50;;;;;;;33.67;20.63;;;7.80;99.90;;;;;;5003424;28;20042;-69
2022/11/29 10:20:22;;;;;;;38.00;22.52;;;7.80;99.90;;;;;;5008595;28;20378;-68
2022/11/29 10:22:54;;;;;;;34.60;21.88;;;7.80;99.80;;;;;;5008848;28;21692;-69
2022/11/29 10:25:48;;;;;;;37.10;21.17;;;7.80;99.80;;;;;;5008692;28;20452;-69
2022/11/29 10:28:26;;;;;;;37.05;21.60;;;7.80;99.90;;;;;;4997746;28;20025;-70
2022/11/29 10:30:54;;;;;;;32.00;20.92;;;7.80;99.80;;;;;;4999392;28;20849;-68
2022/11/29 10:33:27;;;;;;;35.35;21.38;;;7.80;99.80;;;;;;5000503;28;20042;-69
2022/11/29 10:36:05;;;;;;;37.10;22.90;;;7.80;99.70;;;;;;5005965;28;20412;-69
2022/11/29 10:38:31;;;;;;;34.53;21.20;;;7.80;99.70;;;;;;5008702;28;20022;-69
2022/11/29 10:41:06;;;;;;;35.70;20.45;;;7.70;99.80;;;;;;5008882;28;20042;-68
2022/11/29 10:43:32;;;;;;;38.28;22.27;;;7.70;99.80;;;;;;5007931;28;20025;-69
2022/11/29 10:45:59;;;;;;;36.85;21.95;;;7.70;99.80;;;;;;5011779;28;20057;-70
2022/11/29 10:48:30;;;;;;;37.38;25.02;;;7.70;99.80;;;;;;5006994;28;20109;-69
2022/11/29 10:50:56;;;;;;;35.33;22.27;;;7.70;99.80;;;;;;5010491;28;20045;-69
2022/11/29 10:53:25;;;;;;;35.78;23.20;;;7.70;99.80;;;;;;5009425;28;20084;-69
2022/11/29 10:56:22;;;;;;;42.90;24.42;;;7.70;99.80;;;;;;5010386;28;20060;-70
2022/11/29 10:59:07;;;;;;;37.60;23.42;;;7.70;99.80;;;;;;5009966;28;20623;-69
2022/11/29 11:01:37;;;;;;;35.70;22.90;;;7.70;99.70;;;;;;5011489;28;20473;-69
2022/11/29 11:04:06;;;;;;;40.08;23.30;;;7.70;99.80;;;;;;5012069;28;20030;-69
2022/11/29 11:06:43;;;;;;;35.47;22.65;;;7.70;99.80;;;;;;5010661;28;20034;-69
2022/11/29 11:09:30;;;;;;;41.63;24.13;;;7.70;99.70;;;;;;5008115;28;20061;-68
2022/11/29 11:12:02;;;;;;;39.20;23.95;;;7.70;99.70;;;;;;5012001;28;20045;-68
2022/11/29 11:14:32;;;;;;;34.80;22.48;;;7.70;99.70;;;;;;5012842;28;20048;-70
2022/11/29 11:17:19;;;;;;;34.83;21.17;;;7.60;99.70;;;;;;5014060;28;20030;-70
2022/11/29 11:19:55;;;;;;;34.00;20.80;;;7.60;99.60;;;;;;5010348;28;20046;-70
2022/11/29 11:22:22;;;;;;;35.35;21.63;;;7.60;99.60;;;;;;5011947;28;20022;-69
2022/11/29 11:24:56;;;;;;;35.65;22.05;;;7.60;99.60;;;;;;5012680;28;20045;-70
2022/11/29 11:27:34;;;;;;;35.35;22.90;;;7.60;99.70;;;;;;5004328;28;20101;-70
2022/11/29 11:30:02;;;;;;;36.35;20.83;;;7.70;99.70;;;;;;5011373;28;20038;-69
2022/11/29 11:32:28;;;;;;;34.40;22.67;;;7.60;99.70;;;;;;5012945;28;20026;-69
2022/11/29 11:34:55;;;;;;;37.10;22.77;;;7.60;99.70;;;;;;5013298;28;20069;-69
2022/11/29 11:37:28;;;;;;;39.35;22.60;;;7.70;99.80;;;;;;5026126;28;20076;-68
2022/11/29 11:39:59;;;;;;;36.92;23.67;;;7.70;99.80;;;;;;5003419;28;20128;-68
2022/11/29 11:42:36;;;;;;;36.70;24.27;;;7.70;99.80;;;;;;5014351;28;20033;-69
2022/11/29 11:45:11;;;;;;;38.15;22.73;;;7.70;99.70;;;;;;5006347;28;20271;-68
2022/11/29 11:47:43;;;;;;;37.40;22.48;;;7.80;99.80;;;;;;5013779;28;20030;-69
2022/11/29 11:50:15;;;;;;;36.13;22.23;;;7.80;99.70;;;;;;5011461;28;20033;-69
2022/11/29 11:52:51;;;;;;;36.65;22.92;;;7.80;99.70;;;;;;5015185;28;20114;-68
2022/11/29 11:55:39;;;;;;;38.97;23.67;;;7.80;99.70;;;;;;5012920;28;20061;-69
2022/11/29 11:58:16;;;;;;;34.35;21.92;;;7.80;99.70;;;;;;5013581;28;20038;-69
2022/11/29 12:00:44;;;;;;;34.55;22.67;;;7.80;99.70;;;;;;5010840;28;20046;-69
2022/11/29 12:03:25;;;;;;;39.67;23.25;;;7.80;99.70;;;;;;5013253;28;20025;-69
2022/11/29 12:05:54;;;;;;;36.75;21.48;;;7.80;99.70;;;;;;5012110;28;20044;-69
2022/11/29 12:08:22;;;;;;;38.92;24.30;;;7.70;99.60;;;;;;5010937;28;20038;-69
2022/11/29 12:10:52;;;;;;;36.25;23.20;;;7.70;99.60;;;;;;5013312;28;20022;-69
2022/11/29 12:13:27;;;;;;;37.60;23.98;;;7.70;99.60;;;;;;5014181;28;20570;-70
2022/11/29 12:15:57;;;;;;;38.45;24.08;;;7.70;99.60;;;;;;5021086;28;20366;-69
2022/11/29 12:18:43;;;;;;;36.70;23.67;;;7.70;99.60;;;;;;5011271;28;20034;-69
2022/11/29 12:21:22;;;;;;;40.88;24.63;;;7.70;99.60;;;;;;5009992;28;20046;-70
2022/11/29 12:23:54;;;;;;;38.35;23.58;;;7.80;99.70;;;;;;5012971;28;20045;-68
2022/11/29 12:26:29;;;;;;;36.95;23.45;;;7.80;99.70;;;;;;5014259;28;20096;-68
2022/11/29 12:28:55;;;;;;;40.92;23.00;;;7.80;99.70;;;;;;5013124;28;20061;-68
2022/11/29 12:31:29;;;;;;;38.60;23.38;;;7.80;99.70;;;;;;5012223;28;20017;-69
2022/11/29 12:33:55;;;;;;;39.40;23.77;;;7.80;99.70;;;;;;5011768;28;20045;-68
2022/11/29 12:36:56;;;;;;;35.63;22.83;;;7.80;99.70;;;;;;5011899;28;20045;-68
2022/11/29 12:40:01;;;;;;;40.45;23.83;;;7.70;99.60;;;;;;5012160;28;20077;-69
2022/11/29 12:42:39;;;;;;;35.42;23.13;;;7.70;99.60;;;;;;5010559;28;20030;-68
2022/11/29 12:45:29;;;;;;;37.83;24.17;;;7.70;99.60;;;;;;5000914;28;20316;-69
2022/11/29 12:48:12;;;;;;;35.17;22.48;;;7.70;99.70;;;;;;5013667;28;20029;-69
2022/11/29 12:50:53;;;;;;;37.25;24.00;;;7.70;99.60;;;;;;5012181;28;20482;-67
2022/11/29 12:53:46;;;;;;;36.50;23.10;;;7.70;99.60;;;;;;4994093;28;20069;-68
2022/11/29 12:56:25;;;;;;;36.70;23.00;;;7.70;99.60;;;;;;5007324;28;20032;-68
2022/11/29 12:59:21;;;;;;;44.13;26.38;;;7.80;99.70;;;;;;5008700;28;20057;-68
2022/11/29 13:01:59;;;;;;;40.13;22.83;;;7.70;99.70;;;;;;5012820;28;20076;-68
2022/11/29 13:04:52;;;;;;;38.78;24.38;;;7.80;99.70;;;;;;5006798;28;20502;-68
2022/11/29 13:07:46;;;;;;;40.28;23.88;;;7.70;99.60;;;;;;5009227;28;20032;-68
2022/11/29 13:10:20;;;;;;;37.50;23.13;;;7.70;99.90;;;;;;5006428;28;20034;-68
2022/11/29 13:12:53;;;;;;;37.70;24.20;;;7.70;99.70;;;;;;5011537;28;20069;-69
2022/11/29 13:15:34;;;;;;;38.55;25.27;;;7.70;99.70;;;;;;5010679;28;20057;-68
2022/11/29 13:18:21;;;;;;;40.38;26.92;;;7.70;99.70;;;;;;5012406;28;20029;-68
2022/11/29 13:20:52;;;;;;;41.35;24.63;;;7.70;99.70;;;;;;5012908;28;20041;-68
2022/11/29 13:23:24;;;;;;;36.92;24.23;;;7.60;99.70;;;;;;5008250;28;20057;-68
2022/11/29 13:25:53;;;;;;;40.75;25.30;;;7.60;99.70;;;;;;5010039;28;20414;-68
2022/11/29 13:28:21;;;;;;;48.33;28.00;;;7.50;99.70;;;;;;5010748;28;20029;-69
2022/11/29 13:30:47;;;;;;;46.65;25.52;;;7.60;99.80;;;;;;5011497;28;20069;-68
2022/11/29 13:33:32;;;;;;;37.22;24.63;;;7.60;99.70;;;;;;5007243;28;20033;-69
2022/11/29 13:36:28;;;;;;;41.03;25.13;;;7.60;99.70;;;;;;5008437;28;20045;-68